createdAt,value
2023-05-01T00:01:48.462Z,8.66
2023-05-01T00:08:40.084Z,8.59
2023-05-01T00:15:33.971Z,8.58
2023-05-01T00:22:14.551Z,8.55
2023-05-01T00:29:10.078Z,8.48
2023-05-01T00:35:53.623Z,8.31
2023-05-01T00:42:53.377Z,7.62
2023-05-01T00:49:49.856Z,7.36
2023-05-01T00:56:32.597Z,7.48
2023-05-01T01:03:25.626Z,7.67
2023-05-01T01:10:21.093Z,7.55
2023-05-01T01:16:58.739Z,7.75
2023-05-01T01:24:14.473Z,7.70
2023-05-01T01:31:21.962Z,7.70
2023-05-01T01:42:46.418Z,7.80
2023-05-01T01:49:40.427Z,7.77
2023-05-01T01:56:35.884Z,7.52
2023-05-01T02:03:25.465Z,7.66
2023-05-01T02:10:20.142Z,7.65
2023-05-01T02:17:10.745Z,7.39
2023-05-01T02:24:07.018Z,7.18
2023-05-01T02:30:47.613Z,7.42
2023-05-01T02:37:43.057Z,7.54
2023-05-01T02:44:42.331Z,7.66
2023-05-01T02:51:32.154Z,7.54
2023-05-01T02:58:26.172Z,7.45
2023-05-01T03:05:15.843Z,7.38
2023-05-01T03:12:09.492Z,7.54
2023-05-01T03:18:57.481Z,7.86
2023-05-01T03:25:54.956Z,8.14
2023-05-01T03:32:50.542Z,8.40
2023-05-01T03:44:02.024Z,8.59
2023-05-01T03:50:59.412Z,8.75
2023-05-01T03:57:49.572Z,9.04
2023-05-01T04:04:37.917Z,9.13
2023-05-01T04:11:25.401Z,9.47
2023-05-01T04:18:18.546Z,9.74
2023-05-01T04:25:11.190Z,10.10
2023-05-01T04:31:59.065Z,10.40
2023-05-01T04:43:05.867Z,10.57
2023-05-01T04:49:58.618Z,10.72
2023-05-01T04:56:46.520Z,10.80
2023-05-01T05:03:41.421Z,11.07
2023-05-01T05:10:36.414Z,11.51
2023-05-01T05:17:45.798Z,11.85
2023-05-01T05:24:40.981Z,12.39
2023-05-01T05:31:28.603Z,12.81
2023-05-01T05:38:21.980Z,13.12
2023-05-01T05:42:06.667Z,13.26
2023-05-01T05:49:06.960Z,13.47
2023-05-01T05:56:01.648Z,13.67
2023-05-01T06:02:44.703Z,13.94
2023-05-01T06:09:45.653Z,14.09
2023-05-01T06:16:40.783Z,14.17
2023-05-01T06:23:21.526Z,14.43
2023-05-01T06:30:36.862Z,14.81
2023-05-01T06:37:24.638Z,14.91
2023-05-01T06:44:18.477Z,14.85
2023-05-01T06:51:07.249Z,15.08
2023-05-01T06:58:04.848Z,15.41
2023-05-01T07:04:59.454Z,15.59
2023-05-01T07:11:57.221Z,15.69
2023-05-01T07:18:45.453Z,15.90
2023-05-01T07:25:32.684Z,16.06
2023-05-01T07:32:23.621Z,16.08
2023-05-01T07:43:42.605Z,16.28
2023-05-01T07:50:26.147Z,16.63
2023-05-01T08:04:51.429Z,17.06
2023-05-01T08:11:47.293Z,17.14
2023-05-01T08:18:43.906Z,17.18
2023-05-01T08:25:38.073Z,17.71
2023-05-01T08:32:59.212Z,17.78
2023-05-01T08:44:15.116Z,18.30
2023-05-01T09:00:31.319Z,18.81
2023-05-01T09:15:18.519Z,19.44
2023-05-01T09:22:19.387Z,19.70
2023-05-01T09:29:48.649Z,20.02
2023-05-01T09:36:57.086Z,20.04
2023-05-01T09:51:32.686Z,20.49
2023-05-01T09:58:29.098Z,21.18
2023-05-01T10:10:06.766Z,21.05
2023-05-01T10:17:25.123Z,21.67
2023-05-01T10:24:20.629Z,21.59
2023-05-01T10:31:21.568Z,21.70
2023-05-01T10:38:31.306Z,21.93
2023-05-01T10:45:48.776Z,22.24
2023-05-01T10:53:22.317Z,21.76
2023-05-01T11:00:24.838Z,22.00
2023-05-01T11:11:51.817Z,22.56
2023-05-01T11:18:54.703Z,22.02
2023-05-01T11:25:58.896Z,22.12
2023-05-01T11:32:30.517Z,22.93
2023-05-01T11:39:28.008Z,23.07
2023-05-01T11:46:22.024Z,23.21
2023-05-01T11:53:17.953Z,22.97
2023-05-01T12:00:08.630Z,21.98
2023-05-01T12:11:51.898Z,23.32
2023-05-01T12:18:41.049Z,23.44
2023-05-01T12:25:39.707Z,23.79
2023-05-01T12:32:39.425Z,23.89
2023-05-01T12:39:53.622Z,23.80
2023-05-01T12:46:34.864Z,23.92
2023-05-01T12:58:14.886Z,23.80
2023-05-01T13:05:21.486Z,23.72
2023-05-01T13:12:22.421Z,23.68
2023-05-01T13:19:29.868Z,23.77
2023-05-01T13:31:27.791Z,23.66
2023-05-01T13:38:39.811Z,23.72
2023-05-01T13:45:40.900Z,23.80
2023-05-01T13:52:51.817Z,23.77
2023-05-01T14:00:13.649Z,23.73
2023-05-01T14:11:48.300Z,23.72
2023-05-01T14:19:00.852Z,23.70
2023-05-01T14:27:08.202Z,23.83
2023-05-01T14:34:40.329Z,23.31
2023-05-01T14:41:48.641Z,23.11
2023-05-01T14:48:59.140Z,22.70
2023-05-01T14:56:10.119Z,22.74
2023-05-01T15:15:54.473Z,22.49
2023-05-01T15:31:00.951Z,22.21
2023-05-01T15:42:15.989Z,21.97
2023-05-01T15:53:40.999Z,21.38
2023-05-01T16:05:00.496Z,21.08
2023-05-01T16:16:23.689Z,20.87
2023-05-01T16:23:17.624Z,20.71
2023-05-01T16:43:59.442Z,19.50
2023-05-01T18:23:21.090Z,17.16
2023-05-01T18:30:11.347Z,16.86
2023-05-01T18:37:08.101Z,16.77
2023-05-01T18:43:57.828Z,16.53
2023-05-01T18:51:07.212Z,16.14
2023-05-01T18:57:58.920Z,15.90
2023-05-01T19:04:57.356Z,15.70
2023-05-01T19:11:46.418Z,15.62
2023-05-01T19:18:43.609Z,15.43
2023-05-01T19:29:49.013Z,15.05
2023-05-01T19:36:45.325Z,14.88
2023-05-01T19:43:36.401Z,14.83
2023-05-01T19:50:38.518Z,14.72
2023-05-01T20:02:01.042Z,14.26
2023-05-01T20:08:49.548Z,14.17
2023-05-01T20:15:37.253Z,13.98
2023-05-01T20:22:25.895Z,13.78
2023-05-01T20:29:26.042Z,13.71
2023-05-01T20:36:20.702Z,13.53
2023-05-01T20:43:05.148Z,13.25
2023-05-01T20:50:03.351Z,12.91
2023-05-01T20:56:57.542Z,12.95
2023-05-01T21:03:40.545Z,13.05
2023-05-01T21:10:28.454Z,13.01
2023-05-01T21:17:10.503Z,12.81
2023-05-01T21:24:05.567Z,12.73
2023-05-01T21:30:54.935Z,12.54
2023-05-01T21:37:47.398Z,12.63
2023-05-01T21:44:31.727Z,12.53
2023-05-01T21:51:28.608Z,12.43
2023-05-01T22:02:38.614Z,12.37
2023-05-01T22:09:31.462Z,12.30
2023-05-01T22:16:18.386Z,12.44
2023-05-01T22:23:14.478Z,12.40
2023-05-01T22:30:13.762Z,12.57
2023-05-01T22:37:12.072Z,12.48
2023-05-01T22:44:06.556Z,12.39
2023-05-01T22:50:56.783Z,12.54
2023-05-01T23:02:17.822Z,12.99
2023-05-01T23:09:06.198Z,12.98
2023-05-01T23:16:00.665Z,12.77
2023-05-01T23:22:49.657Z,12.53
2023-05-01T23:29:43.274Z,12.28
2023-05-01T23:36:37.415Z,11.95
2023-05-01T23:43:31.993Z,11.89
2023-05-01T23:50:27.637Z,11.74
2023-05-01T23:57:14.421Z,11.54
